Time;durP1;ratioP1;P1;durP2;ratioP2;P2;SDS_P1;SDS_P2;PMS_P1;PMS_P2;Temp;Humidity;BMP_temperature;BMP_pressure;BME280_temperature;BME280_humidity;BME280_pressure;Samples;Min_cycle;Max_cycle;Signal;HPM_P1;HPM_P2
2022/10/11 00:00:51;;;;;;;7.05;2.28;;;;;;;;;;5011653;28;20053;-78
2022/10/11 00:03:18;;;;;;;6.72;2.13;;;;;;;;;;5010232;28;20467;-78
2022/10/11 00:05:44;;;;;;;8.38;2.25;;;;;;;;;;5027851;28;20049;-78
2022/10/11 00:08:11;;;;;;;10.38;3.08;;;;;;;;;;5012731;28;20050;-78
2022/10/11 00:10:37;;;;;;;5.15;2.38;;;;;;;;;;5028855;28;20053;-78
2022/10/11 00:13:03;;;;;;;6.95;2.22;;;;;;;;;;5026937;28;20049;-78
2022/10/11 00:15:30;;;;;;;4.70;1.52;;;;;;;;;;5028562;28;20555;-78
2022/10/11 00:17:56;;;;;;;7.72;2.58;;;;;;;;;;5028820;28;20045;-77
2022/10/11 00:20:22;;;;;;;8.55;2.50;;;;;;;;;;5012373;28;20049;-77
2022/10/11 00:22:48;;;;;;;11.07;2.20;;;;;;;;;;5013435;28;20472;-77
2022/10/11 00:25:14;;;;;;;12.93;3.47;;;;;;;;;;5030204;28;20489;-79
2022/10/11 00:27:41;;;;;;;6.68;2.80;;;;;;;;;;5030030;28;20663;-78
2022/10/11 00:30:07;;;;;;;9.93;2.25;;;;;;;;;;5029017;28;20084;-78
2022/10/11 00:32:34;;;;;;;8.93;3.10;;;;;;;;;;5031921;28;20415;-78
2022/10/11 00:35:05;;;;;;;5.78;2.35;;;;;;;;;;5015520;28;20045;-78
2022/10/11 00:37:31;;;;;;;9.05;3.10;;;;;;;;;;5032400;28;20064;-78
2022/10/11 00:39:58;;;;;;;9.57;2.17;;;;;;;;;;5041049;28;20142;-78
2022/10/11 00:42:24;;;;;;;5.07;2.05;;;;;;;;;;5031806;28;20053;-78
2022/10/11 00:44:50;;;;;;;10.15;3.05;;;;;;;;;;5014672;28;20456;-78
2022/10/11 00:47:18;;;;;;;6.68;2.38;;;;;;;;;;5028724;28;20520;-78
2022/10/11 00:49:56;;;;;;;8.48;2.15;;;;;;;;;;5029370;28;20852;-78
2022/10/11 00:52:30;;;;;;;8.55;3.35;;;;;;;;;;5029663;28;20515;-78
2022/10/11 00:54:57;;;;;;;8.65;3.03;;;;;;;;;;5029083;28;20492;-79
2022/10/11 00:57:24;;;;;;;7.55;2.55;;;;;;;;;;5030925;28;20092;-78
2022/10/11 00:59:52;;;;;;;9.57;2.15;;;;;;;;;;4998328;28;20179;-78
2022/10/11 01:02:19;;;;;;;3.92;1.80;;;;;;;;;;5030065;28;20045;-78
2022/10/11 01:04:45;;;;;;;8.38;2.65;;;;;;;;;;5030398;28;20128;-78
2022/10/11 01:07:11;;;;;;;11.80;2.55;;;;;;;;;;5014083;28;20046;-78
2022/10/11 01:09:37;;;;;;;8.82;3.25;;;;;;;;;;5030604;28;20041;-77
2022/10/11 01:12:06;;;;;;;6.70;2.00;;;;;;;;;;5031382;28;20051;-78
2022/10/11 01:14:38;;;;;;;4.60;2.00;;;;;;;;;;5030936;28;20041;-77
2022/10/11 01:17:15;;;;;;;7.00;2.17;;;;;;;;;;5030031;28;20120;-78
2022/10/11 01:19:44;;;;;;;6.78;2.08;;;;;;;;;;5029817;28;20192;-77
2022/10/11 01:22:25;;;;;;;8.85;3.05;;;;;;;;;;5031056;28;20612;-77
2022/10/11 01:25:12;;;;;;;13.63;3.00;;;;;;;;;;5015129;28;20081;-78
2022/10/11 01:27:57;;;;;;;6.10;1.50;;;;;;;;;;5056127;28;20073;-78
2022/10/11 01:30:33;;;;;;;11.68;2.30;;;;;;;;;;5030397;28;20045;-78
2022/10/11 01:33:05;;;;;;;6.88;2.58;;;;;;;;;;5013866;28;20046;-78
2022/10/11 01:35:43;;;;;;;11.43;2.50;;;;;;;;;;5014795;28;20386;-78
2022/10/11 01:38:12;;;;;;;8.25;2.33;;;;;;;;;;5037845;28;20053;-78
2022/10/11 01:40:46;;;;;;;6.07;2.25;;;;;;;;;;5031631;28;20402;-79
2022/10/11 01:43:13;;;;;;;8.88;2.63;;;;;;;;;;5031228;28;20045;-77
2022/10/11 01:45:40;;;;;;;6.38;2.13;;;;;;;;;;5039063;28;20075;-78
2022/10/11 01:48:11;;;;;;;11.38;2.33;;;;;;;;;;5014878;28;20057;-78
2022/10/11 01:50:37;;;;;;;7.50;2.97;;;;;;;;;;5024525;28;20043;-78
2022/10/11 01:53:13;;;;;;;8.65;3.08;;;;;;;;;;5031219;28;20060;-78
2022/10/11 01:55:43;;;;;;;12.15;3.53;;;;;;;;;;5030999;28;20053;-78
2022/10/11 01:58:14;;;;;;;7.63;2.00;;;;;;;;;;5030789;28;20053;-77
2022/10/11 02:00:53;;;;;;;9.55;2.35;;;;;;;;;;5030462;28;20059;-78
2022/10/11 02:03:58;;;;;;;8.27;3.20;;;;;;;;;;5030403;28;20050;-78
2022/10/11 02:06:32;;;;;;;3.88;1.77;;;;;;;;;;4963429;28;20498;-78
2022/10/11 02:09:04;;;;;;;7.95;2.38;;;;;;;;;;4979096;28;20056;-78
2022/10/11 02:11:31;;;;;;;5.63;2.10;;;;;;;;;;5011010;28;20057;-78
2022/10/11 02:13:59;;;;;;;3.33;1.58;;;;;;;;;;5033678;28;20077;-78
2022/10/11 02:16:32;;;;;;;7.35;2.33;;;;;;;;;;5034554;28;20374;-77
2022/10/11 02:19:01;;;;;;;6.30;2.55;;;;;;;;;;5027987;28;20057;-78
2022/10/11 02:21:27;;;;;;;9.68;2.97;;;;;;;;;;5033339;28;20106;-77
2022/10/11 02:23:55;;;;;;;7.65;2.03;;;;;;;;;;5042629;28;20398;-78
2022/10/11 02:26:21;;;;;;;9.20;2.53;;;;;;;;;;5017632;28;20077;-78
2022/10/11 02:28:48;;;;;;;7.45;2.38;;;;;;;;;;5033612;28;20040;-77
2022/10/11 02:31:15;;;;;;;9.77;2.85;;;;;;;;;;5033729;28;20048;-78
2022/10/11 02:34:01;;;;;;;5.32;2.58;;;;;;;;;;5033772;28;20211;-78
2022/10/11 02:36:36;;;;;;;9.40;3.13;;;;;;;;;;5033446;28;20052;-77
2022/10/11 02:39:11;;;;;;;9.77;2.60;;;;;;;;;;5033043;28;20041;-78
2022/10/11 02:41:39;;;;;;;8.40;3.00;;;;;;;;;;5017156;28;20048;-77
2022/10/11 02:44:26;;;;;;;8.95;2.58;;;;;;;;;;5033128;28;20091;-78
2022/10/11 02:46:53;;;;;;;8.45;2.35;;;;;;;;;;5029948;28;20381;-78
2022/10/11 02:49:20;;;;;;;10.80;2.88;;;;;;;;;;5029265;28;20065;-78
2022/10/11 02:51:46;;;;;;;7.47;3.05;;;;;;;;;;5029411;28;20068;-78
2022/10/11 02:54:12;;;;;;;9.70;2.50;;;;;;;;;;5031560;28;20091;-78
2022/10/11 02:56:38;;;;;;;7.63;1.98;;;;;;;;;;5031678;28;20107;-78
2022/10/11 02:59:04;;;;;;;6.43;2.53;;;;;;;;;;5031550;28;20095;-78
2022/10/11 03:01:30;;;;;;;10.65;2.95;;;;;;;;;;5024927;28;20529;-78
2022/10/11 03:03:56;;;;;;;10.38;2.40;;;;;;;;;;5015474;28;20107;-77
2022/10/11 03:06:23;;;;;;;6.97;2.92;;;;;;;;;;5033203;28;20128;-78
2022/10/11 03:08:49;;;;;;;8.68;1.92;;;;;;;;;;5031808;28;20084;-78
2022/10/11 03:11:15;;;;;;;9.25;3.33;;;;;;;;;;4999836;28;20519;-78
2022/10/11 03:13:41;;;;;;;7.38;3.45;;;;;;;;;;5058001;28;20048;-78
2022/10/11 03:16:07;;;;;;;9.32;2.95;;;;;;;;;;5030943;28;20037;-78
2022/10/11 03:18:33;;;;;;;11.50;2.55;;;;;;;;;;5056523;28;20143;-78
2022/10/11 03:20:59;;;;;;;7.80;2.65;;;;;;;;;;5039871;28;20056;-78
2022/10/11 03:23:25;;;;;;;5.68;2.80;;;;;;;;;;5016821;28;20486;-78
2022/10/11 03:25:51;;;;;;;8.43;3.95;;;;;;;;;;5056827;28;20080;-79
2022/10/11 03:28:17;;;;;;;17.23;3.25;;;;;;;;;;5054882;28;20048;-78
2022/10/11 03:30:46;;;;;;;10.65;5.32;;;;;;;;;;5039693;28;20081;-78
2022/10/11 03:33:12;;;;;;;4.97;2.30;;;;;;;;;;5031550;28;20393;-78
2022/10/11 03:35:39;;;;;;;8.43;3.15;;;;;;;;;;5014868;28;20086;-78
2022/10/11 03:38:05;;;;;;;6.80;2.78;;;;;;;;;;5031679;28;20049;-78
2022/10/11 03:40:31;;;;;;;9.40;2.65;;;;;;;;;;5057511;28;20130;-78
2022/10/11 03:42:57;;;;;;;9.40;2.80;;;;;;;;;;5032719;28;20060;-78
2022/10/11 03:45:24;;;;;;;12.05;3.50;;;;;;;;;;5032172;28;20056;-78
2022/10/11 03:47:50;;;;;;;5.78;2.45;;;;;;;;;;5023871;28;20098;-78
2022/10/11 03:50:16;;;;;;;6.13;2.60;;;;;;;;;;5032361;28;20053;-78
2022/10/11 03:52:42;;;;;;;5.65;2.22;;;;;;;;;;5033541;28;20049;-78
2022/10/11 03:55:08;;;;;;;14.65;3.92;;;;;;;;;;5031947;28;20071;-78
2022/10/11 03:57:34;;;;;;;8.75;2.83;;;;;;;;;;5040961;28;20153;-78
2022/10/11 04:00:00;;;;;;;9.73;3.15;;;;;;;;;;5036322;28;20052;-78
2022/10/11 04:02:26;;;;;;;7.18;2.58;;;;;;;;;;5034933;28;20115;-78
2022/10/11 04:04:53;;;;;;;10.48;2.95;;;;;;;;;;5034409;28;20487;-78
2022/10/11 04:07:19;;;;;;;11.38;3.72;;;;;;;;;;5033485;28;20079;-78
2022/10/11 04:09:45;;;;;;;7.07;2.25;;;;;;;;;;5040083;28;20036;-79
2022/10/11 04:12:11;;;;;;;11.48;3.13;;;;;;;;;;5052798;28;20056;-78
2022/10/11 04:14:38;;;;;;;9.50;3.00;;;;;;;;;;5032008;28;20053;-78
2022/10/11 04:17:04;;;;;;;16.45;3.38;;;;;;;;;;5033414;28;20139;-78
2022/10/11 04:19:30;;;;;;;8.43;2.45;;;;;;;;;;5033185;28;20033;-78
2022/10/11 04:21:56;;;;;;;7.25;2.53;;;;;;;;;;5041766;28;20449;-78
2022/10/11 04:24:22;;;;;;;7.22;2.70;;;;;;;;;;5044757;28;20528;-78
2022/10/11 04:26:49;;;;;;;6.55;2.78;;;;;;;;;;5027474;28;20052;-78
2022/10/11 04:29:15;;;;;;;6.82;2.20;;;;;;;;;;5062099;28;20060;-78
2022/10/11 04:31:41;;;;;;;7.38;2.90;;;;;;;;;;5005030;28;20484;-78
2022/10/11 04:34:07;;;;;;;7.45;2.20;;;;;;;;;;5019658;28;20152;-78
2022/10/11 04:36:33;;;;;;;9.13;2.63;;;;;;;;;;5061792;28;20053;-78
2022/10/11 04:39:00;;;;;;;9.68;2.80;;;;;;;;;;5041028;28;20644;-78
2022/10/11 04:41:27;;;;;;;9.18;2.75;;;;;;;;;;5036042;28;20128;-78
2022/10/11 04:43:53;;;;;;;8.80;2.92;;;;;;;;;;5035325;28;20107;-78
2022/10/11 04:46:20;;;;;;;7.18;1.92;;;;;;;;;;5033288;28;20128;-79
2022/10/11 04:48:46;;;;;;;7.65;3.42;;;;;;;;;;5043159;28;20049;-78
2022/10/11 04:51:12;;;;;;;13.65;3.20;;;;;;;;;;5034297;28;20048;-78
2022/10/11 04:53:38;;;;;;;5.88;2.10;;;;;;;;;;5035425;28;20080;-78
2022/10/11 04:56:06;;;;;;;11.30;3.38;;;;;;;;;;5042603;28;20063;-78
2022/10/11 04:58:33;;;;;;;10.30;2.28;;;;;;;;;;5059830;28;20053;-78
2022/10/11 05:00:59;;;;;;;7.00;2.33;;;;;;;;;;5059402;28;20094;-78
2022/10/11 05:03:26;;;;;;;11.52;2.60;;;;;;;;;;5036201;28;20513;-78
2022/10/11 05:05:52;;;;;;;10.02;3.20;;;;;;;;;;5034581;28;20127;-78
2022/10/11 05:08:19;;;;;;;6.60;3.38;;;;;;;;;;5024917;28;20040;-78
2022/10/11 05:11:02;;;;;;;7.50;2.17;;;;;;;;;;5034710;28;20048;-78
2022/10/11 05:13:29;;;;;;;10.32;2.92;;;;;;;;;;5018090;28;20045;-78
2022/10/11 05:15:55;;;;;;;7.95;2.67;;;;;;;;;;5034616;28;20049;-78
2022/10/11 05:18:21;;;;;;;10.07;2.42;;;;;;;;;;5055339;28;20053;-78
2022/10/11 05:21:04;;;;;;;7.28;3.00;;;;;;;;;;5023252;28;20437;-80
2022/10/11 05:23:32;;;;;;;5.85;2.17;;;;;;;;;;5033415;28;20056;-78
2022/10/11 05:29:33;;;;;;;9.88;2.90;;;;;;;;;;5049854;28;20056;-78
2022/10/11 05:35:19;;;;;;;11.15;3.65;;;;;;;;;;5026534;28;20443;-79
2022/10/11 05:38:21;;;;;;;10.10;3.38;;;;;;;;;;5057481;28;20105;-78
2022/10/11 05:41:03;;;;;;;7.30;2.38;;;;;;;;;;5031497;28;20055;-77
2022/10/11 05:43:36;;;;;;;6.95;2.97;;;;;;;;;;5030922;28;20049;-78
2022/10/11 05:46:14;;;;;;;7.32;2.22;;;;;;;;;;5028003;28;20171;-78
2022/10/11 05:48:58;;;;;;;7.25;2.50;;;;;;;;;;5029911;28;20041;-77
2022/10/11 05:51:27;;;;;;;8.65;2.67;;;;;;;;;;5029849;28;20049;-78
2022/10/11 05:54:19;;;;;;;5.43;2.20;;;;;;;;;;5043029;28;20052;-79
2022/10/11 05:57:33;;;;;;;6.68;2.40;;;;;;;;;;5014597;28;20091;-78
2022/10/11 05:59:59;;;;;;;6.40;2.00;;;;;;;;;;5008228;28;20057;-78
2022/10/11 06:03:25;;;;;;;9.15;2.53;;;;;;;;;;5030223;28;20060;-78
2022/10/11 06:06:01;;;;;;;13.73;3.42;;;;;;;;;;5008397;28;20146;-78
2022/10/11 06:08:35;;;;;;;7.63;2.60;;;;;;;;;;4969521;28;20042;-78
2022/10/11 06:14:45;;;;;;;7.13;2.97;;;;;;;;;;4930595;28;20518;-77
2022/10/11 06:18:15;;;;;;;;;;;;;;;;;;;;;
2022/10/11 06:24:27;;;;;;;6.32;2.90;;;;;;;;;;4896179;29;20068;-76
2022/10/11 06:27:08;;;;;;;10.38;2.83;;;;;;;;;;4901553;29;20072;-77
2022/10/11 06:30:01;;;;;;;7.53;3.13;;;;;;;;;;4876244;29;20548;-76
2022/10/11 06:36:23;;;;;;;6.07;2.55;;;;;;;;;;4884576;29;20048;-77
2022/10/11 06:39:16;;;;;;;;;;;;;;;;;;;;;
2022/10/11 06:45:32;;;;;;;12.48;3.35;;;;;;;;;;4936790;28;20117;-76
2022/10/11 06:48:01;;;;;;;10.18;3.25;;;;;;;;;;4899425;29;20521;-76
2022/10/11 06:50:50;;;;;;;9.25;3.25;;;;;;;;;;4879265;29;20052;-76
2022/10/11 07:00:02;;;;;;;8.43;3.38;;;;;;;;;;4865643;29;20049;-76
2022/10/11 07:02:40;;;;;;;7.82;3.55;;;;;;;;;;4953472;28;20050;-76
2022/10/11 07:05:34;;;;;;;10.35;3.85;;;;;;;;;;4994300;28;20055;-76
2022/10/11 07:08:29;;;;;;;11.52;3.22;;;;;;;;;;4979753;28;20163;-76
2022/10/11 07:14:40;;;;;;;9.10;2.45;;;;;;;;;;4970013;28;20054;-76
2022/10/11 07:18:07;;;;;;;13.15;2.92;;;;;;;;;;4987442;28;20479;-76
2022/10/11 07:20:45;;;;;;;11.80;3.30;;;;;;;;;;4970619;28;20061;-75
2022/10/11 07:27:12;;;;;;;15.48;3.47;;;;;;;;;;4884904;29;20040;-76
2022/10/11 07:29:44;;;;;;;15.20;3.20;;;;;;;;;;4935259;29;20146;-76
2022/10/11 07:32:15;;;;;;;9.57;2.83;;;;;;;;;;4914819;29;20150;-76
2022/10/11 07:35:03;;;;;;;6.75;3.63;;;;;;;;;;4878619;29;20055;-76
2022/10/11 07:37:37;;;;;;;9.15;3.35;;;;;;;;;;4871407;29;20338;-77
2022/10/11 07:43:22;;;;;;;;;;;;;;;;;;;;;
2022/10/11 07:46:11;;;;;;;10.00;2.88;;;;;;;;;;4958385;28;20090;-78
2022/10/11 07:49:20;;;;;;;;;;;;;;;;;;;;;
2022/10/11 07:52:27;;;;;;;12.50;3.38;;;;;;;;;;4919723;28;20051;-81
2022/10/11 07:55:34;;;;;;;10.95;3.03;;;;;;;;;;4994584;28;20499;-78
2022/10/11 08:01:49;;;;;;;14.95;3.15;;;;;;;;;;4929212;28;20089;-78
2022/10/11 08:04:25;;;;;;;10.55;3.25;;;;;;;;;;4884289;29;20062;-78
2022/10/11 08:07:15;;;;;;;9.95;2.80;;;;;;;;;;4913122;29;20261;-77
2022/10/11 08:10:09;;;;;;;11.32;3.13;;;;;;;;;;4930519;29;20138;-77
2022/10/11 08:13:14;;;;;;;7.97;3.33;;;;;;;;;;4934457;28;20050;-77
2022/10/11 08:15:45;;;;;;;7.03;2.50;;;;;;;;;;4933726;28;20102;-77
2022/10/11 08:18:31;;;;;;;15.80;3.88;;;;;;;;;;4939177;28;20043;-78
2022/10/11 08:21:07;;;;;;;12.95;3.60;;;;;;;;;;4933597;28;20057;-78
2022/10/11 08:27:22;;;;;;;11.27;2.83;;;;;;;;;;4941300;28;20038;-77
2022/10/11 08:30:13;;;;;;;14.18;3.92;;;;;;;;;;4959889;28;20085;-77
2022/10/11 08:33:07;;;;;;;7.75;2.65;;;;;;;;;;4985678;28;20268;-77
2022/10/11 08:35:57;;;;;;;;;;;;;;;;;;;;;
2022/10/11 08:46:25;;;;;;;9.40;3.47;;;;;;;;;;4967463;28;20126;-77
2022/10/11 08:49:01;;;;;;;12.50;4.90;;;;;;;;;;4951248;28;20051;-77
2022/10/11 08:55:38;;;;;;;13.32;3.65;;;;;;;;;;4875466;29;20059;-77
2022/10/11 09:05:04;;;;;;;13.93;3.70;;;;;;;;;;4932402;28;20176;-77
2022/10/11 09:08:16;;;;;;;16.10;4.13;;;;;;;;;;4986489;28;20072;-77
2022/10/11 09:11:23;;;;;;;15.40;3.78;;;;;;;;;;5030208;28;20041;-78
2022/10/11 09:14:04;;;;;;;11.50;5.03;;;;;;;;;;5019026;28;20033;-81
2022/10/11 09:17:35;;;;;;;11.65;3.45;;;;;;;;;;4957472;28;20035;-82
2022/10/11 09:20:37;;;;;;;14.18;3.65;;;;;;;;;;4916157;29;20071;-81
2022/10/11 09:23:28;;;;;;;11.25;3.20;;;;;;;;;;4933673;28;20057;-81
2022/10/11 09:29:28;;;;;;;7.00;2.67;;;;;;;;;;4964544;28;20096;-83
2022/10/11 09:35:19;;;;;;;12.85;3.42;;;;;;;;;;4950806;28;20108;-79
2022/10/11 09:37:55;;;;;;;7.95;2.95;;;;;;;;;;4947590;28;20046;-78
2022/10/11 09:40:49;;;;;;;9.45;3.17;;;;;;;;;;4947903;28;20082;-78
2022/10/11 09:43:54;;;;;;;8.13;2.70;;;;;;;;;;4934479;28;20054;-75
2022/10/11 09:46:44;;;;;;;11.75;2.83;;;;;;;;;;4960944;28;20657;-75
2022/10/11 09:49:36;;;;;;;9.65;2.50;;;;;;;;;;4948625;28;20085;-78
2022/10/11 09:52:09;;;;;;;9.98;2.42;;;;;;;;;;4969492;28;20053;-78
2022/10/11 09:58:32;;;;;;;6.22;2.70;;;;;;;;;;5019337;28;20127;-77
2022/10/11 10:04:58;;;;;;;5.90;2.73;;;;;;;;;;5018546;28;19936;-77
2022/10/11 10:07:51;;;;;;;12.32;3.17;;;;;;;;;;5017854;28;20056;-77
2022/10/11 10:14:40;;;;;;;11.35;2.75;;;;;;;;;;4972792;28;20100;-77
2022/10/11 10:17:49;;;;;;;7.22;2.60;;;13.20;99.90;;;;;;4945013;28;20511;-78
2022/10/11 10:20:33;;;;;;;6.18;2.63;;;;;;;;;;4982991;28;20037;-78
2022/10/11 10:23:37;;;;;;;10.57;2.97;;;;;;;;;;5004210;28;20059;-78
2022/10/11 10:26:44;;;;;;;8.52;2.95;;;;;;;;;;5019559;28;20180;-78
2022/10/11 10:29:19;;;;;;;13.48;2.88;;;;;;;;;;5011801;28;20053;-78
2022/10/11 10:35:18;;;;;;;6.03;2.28;;;;;;;;;;4982730;28;20485;-79
2022/10/11 10:38:14;;;;;;;6.07;2.08;;;;;;;;;;4966221;28;20050;-80
2022/10/11 10:40:42;;;;;;;9.73;2.85;;;;;;;;;;4968644;28;20226;-78
2022/10/11 10:43:36;;;;;;;8.65;2.88;;;;;;;;;;4970502;28;20054;-78
2022/10/11 10:46:40;;;;;;;14.88;3.63;;;;;;;;;;4960267;28;20500;-78
2022/10/11 10:49:43;;;;;;;8.02;2.67;;;;;;;;;;4896940;29;20048;-78
2022/10/11 10:53:01;;;;;;;8.13;2.85;;;;;;;;;;4906608;29;20139;-78
2022/10/11 10:56:14;;;;;;;9.50;3.27;;;;;;;;;;4930198;29;20399;-78
2022/10/11 10:58:52;;;;;;;5.90;2.58;;;;;;;;;;4894577;29;20294;-78
2022/10/11 11:01:56;;;;;;;6.65;2.30;;;;;;;;;;4906567;29;20047;-78
2022/10/11 11:04:51;;;;;;;7.35;3.35;;;;;;;;;;4918839;28;20102;-78
2022/10/11 11:07:58;;;;;;;7.38;2.05;;;;;;;;;;4981230;28;20422;-78
2022/10/11 11:11:00;;;;;;;4.75;2.25;;;;;;;;;;5000688;28;20057;-78
2022/10/11 11:13:50;;;;;;;13.30;2.78;;;;;;;;;;4907019;28;20050;-79
2022/10/11 11:16:29;;;;;;;4.88;1.83;;;;;;;;;;4961476;28;20457;-79
2022/10/11 11:19:41;;;;;;;;;;;;;;;;;;;;;
2022/10/11 11:22:51;;;;;;;9.43;2.17;;;;;;;;;;4983820;28;20103;-79
2022/10/11 11:25:26;;;;;;;13.03;3.13;;;;;;;;;;4990244;28;20061;-79
2022/10/11 11:28:29;;;;;;;;;;;;;;;;;;;;;
2022/10/11 11:31:01;;;;;;;7.55;3.35;;;;;;;;;;4965661;28;20246;-79
2022/10/11 11:37:04;;;;;;;7.20;2.40;;;;;;;;;;4913763;29;20083;-79
2022/10/11 11:40:07;;;;;;;8.48;2.85;;;;;;;;;;4929614;29;20073;-79
2022/10/11 11:43:11;;;;;;;11.88;3.22;;;;;;;;;;4886372;29;20553;-78
2022/10/11 11:46:03;;;;;;;8.50;3.03;;;;;;;;;;4889374;29;20146;-78
2022/10/11 11:53:03;;;;;;;8.93;4.25;;;;;;;;;;4849909;29;20055;-78
2022/10/11 11:59:19;;;;;;;7.03;3.13;;;;;;;;;;4924812;28;20055;-78
2022/10/11 12:02:12;;;;;;;12.15;2.70;;;;;;;;;;4926537;29;20051;-78
2022/10/11 12:05:13;;;;;;;6.85;2.97;;;;;;;;;;4954951;28;20058;-78
2022/10/11 12:19:04;;;;;;;23.30;10.52;;;;;;;;;;4899818;29;20102;-78
2022/10/11 12:22:21;;;;;;;8.77;4.05;;;;;;;;;;4889106;28;20059;-78
2022/10/11 12:28:57;;;;;;;6.90;3.58;;;;;;;;;;4891805;28;20047;-78
2022/10/11 12:31:40;;;;;;;6.78;2.30;;;;;;;;;;5022596;28;20053;-78
2022/10/11 12:38:02;;;;;;;3.75;2.05;;;;;;;;;;4994728;28;20040;-78
2022/10/11 12:40:53;;;;;;;7.57;3.13;;;;;;;;;;4991143;28;20108;-78
2022/10/11 12:47:33;;;;;;;7.65;3.25;;;;;;;;;;4981848;28;20406;-78
2022/10/11 12:50:11;;;;;;;7.70;2.65;;;;;;;;;;4988862;28;20061;-78
2022/10/11 12:53:15;;;;;;;7.15;1.20;;;;;;;;;;5001803;28;20088;-78
2022/10/11 12:56:00;;;;;;;9.65;2.85;;;;;;;;;;4968446;28;20531;-78
2022/10/11 12:59:18;;;;;;;6.57;2.30;;;;;;;;;;4974711;28;20072;-78
2022/10/11 13:01:56;;;;;;;5.47;2.40;;;;;;;;;;4922096;28;20050;-79
2022/10/11 13:09:20;;;;;;;7.03;2.40;;;14.70;99.90;;;;;;4889366;29;20043;-78
2022/10/11 13:15:58;;;;;;;8.02;2.80;;;15.40;99.90;;;;;;4858765;29;20052;-78
2022/10/11 13:18:56;;;;;;;4.93;2.20;;;15.40;99.90;;;;;;4950625;28;20042;-78
2022/10/11 13:21:48;;;;;;;7.50;2.47;;;15.30;99.90;;;;;;4966448;28;20418;-78
2022/10/11 13:25:37;;;;;;;5.20;2.33;;;15.40;99.90;;;;;;4961726;28;20061;-78
2022/10/11 13:28:11;;;;;;;10.10;2.97;;;;;;;;;;4892269;29;20047;-81
2022/10/11 13:30:50;;;;;;;6.85;1.85;;;;;;;;;;4927279;28;20130;-78
2022/10/11 13:33:58;;;;;;;6.47;2.85;;;;;;;;;;4993859;28;20537;-79
2022/10/11 13:36:51;;;;;;;5.63;1.92;;;;;;;;;;5014351;28;20132;-79
2022/10/11 13:39:36;;;;;;;9.70;2.72;;;;;;;;;;5007151;28;20475;-78
2022/10/11 13:42:30;;;;;;;7.35;2.45;;;;;;;;;;4930600;28;20082;-78
2022/10/11 13:45:18;;;;;;;6.57;2.00;;;;;;;;;;4942983;28;20055;-78
2022/10/11 13:48:15;;;;;;;5.90;1.90;;;;;;;;;;4920495;29;20101;-78
2022/10/11 13:51:09;;;;;;;9.00;2.55;;;;;;;;;;4905884;29;20039;-78
2022/10/11 13:57:06;;;;;;;5.95;2.25;;;;;;;;;;4938525;29;20142;-78
2022/10/11 14:00:14;;;;;;;;;;;;;;;;;;4928979;29;20105;-78
2022/10/11 14:02:56;;;;;;;9.88;2.35;;;;;;;;;;4913054;28;20422;-78
2022/10/11 14:09:39;;;;;;;7.78;2.55;;;;;;;;;;4901003;29;20552;-77
2022/10/11 14:15:37;;;;;;;10.48;3.08;;;;;;;;;;4920222;28;20353;-77
2022/10/11 14:18:25;;;;;;;4.40;1.73;;;;;;;;;;4997802;28;20057;-77
2022/10/11 14:21:44;;;;;;;4.72;2.13;;;;;;;;;;4971297;28;20554;-78
2022/10/11 14:24:50;;;;;;;5.85;2.10;;;;;;;;;;4979369;28;20509;-78
2022/10/11 14:28:12;;;;;;;5.53;1.88;;;;;;;;;;4930295;28;20059;-78
2022/10/11 14:33:43;;;;;;;4.57;1.75;;;;;;;;;;4948000;28;20050;-78
2022/10/11 14:36:31;;;;;;;9.82;2.42;;;;;;;;;;4979136;28;20061;-78
2022/10/11 14:39:36;;;;;;;5.68;2.10;;;;;;;;;;4926041;29;20100;-78
2022/10/11 14:42:13;;;;;;;;;;;;;;;;;;4927036;28;20482;-78
2022/10/11 14:45:12;;;;;;;8.32;2.25;;;;;;;;;;4870064;29;19928;-78
2022/10/11 14:48:11;;;;;;;8.55;1.92;;;;;;;;;;4959117;28;20405;-78
2022/10/11 14:50:46;;;;;;;3.03;1.60;;;;;;;;;;4985939;28;20041;-78
2022/10/11 14:54:11;;;;;;;4.93;1.80;;;;;;;;;;4973548;28;20094;-78
2022/10/11 14:57:19;;;;;;;9.13;2.22;;;;;;;;;;4966629;28;20360;-77
2022/10/11 15:00:21;;;;;;;7.00;2.28;;;;;;;;;;4972154;28;20526;-78
2022/10/11 15:03:23;;;;;;;3.63;1.70;;;;;;;;;;4975223;28;20042;-78
2022/10/11 15:09:20;;;;;;;4.82;2.17;;;;;;;;;;4976507;28;20041;-77
2022/10/11 15:12:37;;;;;;;9.52;2.40;;;;;;;;;;4946991;28;20063;-77
2022/10/11 15:15:06;;;;;;;6.05;2.63;;;;;;;;;;4930229;28;20525;-76
2022/10/11 15:17:32;;;;;;;6.32;2.33;;;;;;;;;;4964118;28;20129;-76
2022/10/11 15:19:58;;;;;;;10.45;2.80;;;;;;;;;;4991215;28;20104;-75
2022/10/11 15:22:24;;;;;;;6.30;1.77;;;;;;;;;;4977442;28;20496;-75
2022/10/11 15:24:50;;;;;;;4.90;1.98;;;15.50;99.70;;;;;;4970954;28;20092;-75
2022/10/11 15:27:16;;;;;;;11.90;2.45;;;14.70;98.90;;;;;;4999555;28;20132;-76
2022/10/11 15:29:42;;;;;;;4.65;1.40;;;14.70;99.00;;;;;;4982062;28;20673;-75
2022/10/11 15:32:07;;;;;;;6.97;2.50;;;14.70;99.00;;;;;;5000565;28;20406;-75
2022/10/11 15:34:33;;;;;;;7.05;2.10;;;14.70;98.90;;;;;;5000953;28;20049;-81
2022/10/11 15:36:59;;;;;;;6.35;1.92;;;14.60;98.90;;;;;;4996850;28;21009;-78
2022/10/11 15:39:30;;;;;;;6.28;1.75;;;14.60;99.00;;;;;;5006180;28;20509;-80
2022/10/11 15:41:57;;;;;;;7.63;2.70;;;14.60;99.00;;;;;;5003671;28;20060;-80
2022/10/11 15:44:23;;;;;;;7.93;2.08;;;14.50;99.00;;;;;;5009264;28;20057;-79
2022/10/11 15:46:49;;;;;;;5.82;2.05;;;;;;;;;;5012631;28;20060;-81
2022/10/11 15:49:16;;;;;;;9.13;2.35;;;;;;;;;;5004431;28;20054;-81
2022/10/11 15:51:42;;;;;;;4.10;1.75;;;;;;;;;;5005614;28;20112;-81
2022/10/11 15:54:08;;;;;;;9.93;2.47;;;;;;;;;;5005339;28;20519;-79
2022/10/11 15:56:34;;;;;;;4.90;2.08;;;;;;;;;;5008229;28;20152;-80
2022/10/11 15:59:00;;;;;;;5.10;2.30;;;;;;;;;;5012135;28;20049;-80
2022/10/11 16:01:27;;;;;;;4.15;2.10;;;;;;;;;;5010105;28;20112;-81
2022/10/11 16:03:53;;;;;;;6.25;1.88;;;;;;;;;;5006953;28;20128;-76
2022/10/11 16:06:19;;;;;;;5.47;2.00;;;;;;;;;;5004809;28;20145;-76
2022/10/11 16:08:46;;;;;;;5.85;2.45;;;;;;;;;;5014542;28;20134;-76
2022/10/11 16:11:12;;;;;;;7.10;2.45;;;;;;;;;;5022896;28;20045;-76
2022/10/11 16:13:39;;;;;;;6.00;2.17;;;;;;;;;;5022639;28;20453;-76
2022/10/11 16:16:06;;;;;;;5.85;2.00;;;;;;;;;;5007426;28;20049;-76
2022/10/11 16:18:32;;;;;;;5.82;1.98;;;;;;;;;;5023896;28;20132;-76
2022/10/11 16:20:58;;;;;;;9.73;2.20;;;;;;;;;;5009459;28;20080;-76
2022/10/11 16:23:25;;;;;;;5.15;2.17;;;;;;;;;;5008634;28;20069;-76
2022/10/11 16:25:56;;;;;;;9.52;3.50;;;;;;;;;;5025211;28;20119;-78
2022/10/11 16:28:23;;;;;;;6.30;2.45;;;;;;;;;;5042342;28;20045;-75
2022/10/11 16:30:49;;;;;;;7.18;2.15;;;;;;;;;;5023511;28;20515;-76
2022/10/11 16:33:15;;;;;;;5.10;2.85;;;;;;;;;;5022239;28;20068;-76
2022/10/11 16:35:41;;;;;;;5.85;2.33;;;;;;;;;;5021675;28;20159;-76
2022/10/11 16:38:08;;;;;;;10.18;2.92;;;;;;;;;;5005477;28;20480;-75
2022/10/11 16:40:34;;;;;;;7.82;2.30;;;;;;;;;;5021618;28;20098;-76
2022/10/11 16:43:04;;;;;;;7.35;2.25;;;;;;;;;;5023243;28;20508;-76
2022/10/11 16:45:31;;;;;;;6.65;2.45;;;;;;;;;;5006426;28;20119;-76
2022/10/11 16:47:57;;;;;;;6.57;2.50;;;;;;;;;;5018220;28;20144;-76
2022/10/11 16:50:23;;;;;;;7.85;3.90;;;;;;;;;;5016973;28;20179;-76
2022/10/11 16:52:49;;;;;;;9.13;3.22;;;;;;;;;;5020799;28;20064;-76
2022/10/11 16:55:16;;;;;;;8.25;3.65;;;;;;;;;;5029933;28;20049;-76
2022/10/11 16:57:42;;;;;;;6.70;2.60;;;;;;;;;;5023065;28;20191;-76
2022/10/11 17:00:09;;;;;;;6.82;2.58;;;;;;;;;;5023266;28;20049;-76
2022/10/11 17:02:35;;;;;;;8.38;2.20;;;;;;;;;;5022991;28;20095;-76
2022/10/11 17:05:01;;;;;;;7.38;2.88;;;;;;;;;;5023860;28;20136;-76
2022/10/11 17:07:28;;;;;;;9.20;3.08;;;;;;;;;;5027312;28;20071;-76
2022/10/11 17:09:54;;;;;;;7.68;3.13;;;;;;;;;;5039158;28;20060;-76
2022/10/11 17:12:21;;;;;;;6.97;3.40;;;14.50;99.10;;;;;;5029988;28;20477;-76
2022/10/11 17:14:48;;;;;;;4.75;2.20;;;;;;;;;;5029274;28;20103;-76
2022/10/11 17:17:14;;;;;;;9.15;2.80;;;;;;;;;;5030723;28;20045;-77
2022/10/11 17:19:42;;;;;;;7.55;2.33;;;;;;;;;;5052775;28;20060;-77
2022/10/11 17:22:09;;;;;;;6.32;2.60;;;;;;;;;;5055549;28;20057;-77
2022/10/11 17:24:35;;;;;;;6.88;2.95;;;;;;;;;;5029527;28;20162;-75
2022/10/11 17:27:02;;;;;;;7.90;2.97;;;;;;;;;;5030940;28;20055;-74
2022/10/11 17:29:28;;;;;;;4.57;2.05;;;;;;;;;;5053165;28;20048;-74
2022/10/11 17:31:55;;;;;;;5.90;2.35;;;;;;;;;;5012417;28;20052;-74
2022/10/11 17:34:21;;;;;;;8.85;3.47;;;;;;;;;;5029384;28;20144;-74
2022/10/11 17:36:47;;;;;;;7.35;3.30;;;;;;;;;;5035414;28;20052;-74
2022/10/11 17:39:17;;;;;;;7.88;3.42;;;;;;;;;;5031079;28;20515;-74
2022/10/11 17:41:44;;;;;;;10.52;4.00;;;;;;;;;;5054318;28;20057;-74
2022/10/11 17:44:10;;;;;;;8.98;3.75;;;;;;;;;;5029867;28;20124;-77
2022/10/11 17:46:37;;;;;;;12.98;3.78;;;;;;;;;;5027586;28;20128;-74
2022/10/11 17:49:04;;;;;;;12.90;6.28;;;;;;;;;;5051540;28;20503;-74
2022/10/11 17:51:30;;;;;;;14.15;5.00;;;;;;;;;;5029029;28;20091;-77
2022/10/11 17:53:56;;;;;;;7.65;4.10;;;;;;;;;;5036812;28;20049;-74
2022/10/11 17:56:24;;;;;;;11.07;4.22;;;;;;;;;;5053481;28;20045;-74
2022/10/11 17:58:51;;;;;;;8.48;4.32;;;;;;;;;;5028191;28;20140;-75
2022/10/11 18:01:18;;;;;;;8.55;4.25;;;;;;;;;;5050309;28;20076;-75
2022/10/11 18:03:49;;;;;;;8.95;4.22;;;;;;;;;;5027469;28;20052;-75
2022/10/11 18:06:16;;;;;;;8.25;2.55;;;;;;;;;;5028959;28;20047;-75
2022/10/11 18:08:42;;;;;;;11.02;3.65;;;;;;;;;;5024957;28;20442;-75